^^
Station Historical Data
 
Daily Summary for April 19, 2019 Units:  English    Metric   Both
« Previous Day
Next Day »
Daily Weekly Monthly Yearly Custom
  Current: High: Low: Average:
Temperature: 66.8 °F TemperatureF °F 55.3 °F 58.3 °F
Dew Point: 40.4 °F DewpointF °F 40.3 °F 44.1 °F
Humidity: 38% Humidity% 38% 59%
Wind Speed: 12.0mph WindSpeedMPHmph 2.0mph 7.3mph
Wind Gust: 21.0mph WindSpeedGustMPHmph - -
WindNNW - - NW
Pressure: 30.11 in PressureIn in 29.96 in -
Precipitation: 0.00 in      
Historical Graphs
 
 
Tabular Data for April 19, 2019
Time Temperature Dew Point Pressure Wind Wind Speed Wind Gust Humidity Rainfall Rate (Hourly) solar Conditions
TemperatureF °F DewpointF °F PressureIn in Calm     Humidity% HourlyPrecipIn in SolarRadiationWatts/m^2 W/m2 Conditions
00:04 57.5 °F 46.2 °F 29.97 in WNW 5.0 mph 6.0 mph 66% 0.00 in 0.00 W/m2
00:09 57.3 °F 46.0 °F 29.97 in WNW 4.0 mph 7.0 mph 66% 0.00 in 0.00 W/m2
00:14 57.1 °F 46.3 °F 29.97 in WNW 4.0 mph 6.0 mph 67% 0.00 in 0.00 W/m2
00:19 56.9 °F 46.5 °F 29.97 in WNW 7.0 mph 7.0 mph 68% 0.00 in 0.00 W/m2
00:24 56.7 °F 47.0 °F 29.97 in NW 7.0 mph 7.0 mph 70% 0.00 in 0.00 W/m2
00:29 56.7 °F 46.3 °F 29.98 in WNW 6.0 mph 8.0 mph 68% 0.00 in 0.00 W/m2
00:34 57.0 °F 46.2 °F 29.98 in North 7.0 mph 7.0 mph 67% 0.00 in 0.00 W/m2
00:39 56.9 °F 46.5 °F 29.99 in WNW 5.0 mph 7.0 mph 68% 0.00 in 0.00 W/m2
00:44 56.7 °F 45.9 °F 29.99 in NW 7.0 mph 10.0 mph 67% 0.00 in 0.00 W/m2
00:49 56.9 °F 46.5 °F 29.99 in NW 5.0 mph 5.0 mph 68% 0.00 in 0.00 W/m2
00:54 56.9 °F 46.1 °F 29.98 in WNW 2.0 mph 3.0 mph 67% 0.00 in 0.00 W/m2
00:59 56.8 °F 46.0 °F 29.98 in West 5.0 mph 5.0 mph 67% 0.00 in 0.00 W/m2
01:04 56.5 °F 46.5 °F 29.98 in NW 5.0 mph 6.0 mph 69% 0.00 in 0.00 W/m2
01:09 56.4 °F 46.0 °F 29.99 in NNW 6.0 mph 10.0 mph 68% 0.00 in 0.00 W/m2
01:14 56.7 °F 46.3 °F 29.99 in WNW 7.0 mph 12.0 mph 68% 0.00 in 0.00 W/m2
01:19 57.2 °F 45.6 °F 29.99 in WNW 6.0 mph 9.0 mph 65% 0.00 in 0.00 W/m2
01:24 57.6 °F 45.9 °F 29.99 in NNW 6.0 mph 6.0 mph 65% 0.00 in 0.00 W/m2
01:29 57.7 °F 45.6 °F 29.99 in NW 5.0 mph 6.0 mph 64% 0.00 in 0.00 W/m2
01:34 57.7 °F 45.2 °F 29.98 in NW 6.0 mph 6.0 mph 63% 0.00 in 0.00 W/m2
01:39 57.8 °F 44.9 °F 29.98 in NNW 4.0 mph 5.0 mph 62% 0.00 in 0.00 W/m2
01:44 58.0 °F 44.6 °F 29.98 in NNW 6.0 mph 6.0 mph 61% 0.00 in 0.00 W/m2
01:49 58.0 °F 44.6 °F 29.98 in WNW 5.0 mph 8.0 mph 61% 0.00 in 0.00 W/m2
01:54 57.9 °F 44.5 °F 29.98 in WNW 3.0 mph 6.0 mph 61% 0.00 in 0.00 W/m2
01:59 57.8 °F 45.3 °F 29.97 in NW 6.0 mph 6.0 mph 63% 0.00 in 0.00 W/m2
02:04 57.6 °F 44.3 °F 29.97 in NW 8.0 mph 9.0 mph 61% 0.00 in 0.00 W/m2
02:09 57.6 °F 44.7 °F 29.97 in WNW 4.0 mph 6.0 mph 62% 0.00 in 0.00 W/m2
02:14 57.5 °F 44.6 °F 29.97 in NW 8.0 mph 8.0 mph 62% 0.00 in 0.00 W/m2
02:19 57.3 °F 44.4 °F 29.98 in NW 5.0 mph 5.0 mph 62% 0.00 in 0.00 W/m2
02:24 57.1 °F 44.6 °F 29.98 in NW 6.0 mph 7.0 mph 63% 0.00 in 0.00 W/m2
02:29 56.9 °F 44.5 °F 29.97 in NW 5.0 mph 6.0 mph 63% 0.00 in 0.00 W/m2
02:34 56.7 °F 44.7 °F 29.96 in NW 6.0 mph 6.0 mph 64% 0.00 in 0.00 W/m2
02:39 56.4 °F 44.8 °F 29.97 in NW 8.0 mph 8.0 mph 65% 0.00 in 0.00 W/m2
02:44 56.3 °F 44.7 °F 29.97 in NW 7.0 mph 7.0 mph 65% 0.00 in 0.00 W/m2
02:49 56.3 °F 44.3 °F 29.96 in NW 7.0 mph 7.0 mph 64% 0.00 in 0.00 W/m2
02:54 56.5 °F 44.1 °F 29.96 in NW 7.0 mph 7.0 mph 63% 0.00 in 0.00 W/m2
02:59 56.7 °F 44.3 °F 29.97 in NNW 5.0 mph 7.0 mph 63% 0.00 in 0.00 W/m2
03:04 56.6 °F 44.2 °F 29.97 in NW 6.0 mph 9.0 mph 63% 0.00 in 0.00 W/m2
03:09 56.6 °F 44.2 °F 29.97 in NNW 6.0 mph 9.0 mph 63% 0.00 in 0.00 W/m2
03:14 56.6 °F 44.6 °F 29.97 in NW 6.0 mph 7.0 mph 64% 0.00 in 0.00 W/m2
03:19 56.4 °F 44.4 °F 29.97 in NNW 8.0 mph 8.0 mph 64% 0.00 in 0.00 W/m2
03:24 56.2 °F 44.2 °F 29.97 in NNW 6.0 mph 8.0 mph 64% 0.00 in 0.00 W/m2
03:29 56.0 °F 44.4 °F 29.97 in NW 3.0 mph 7.0 mph 65% 0.00 in 0.00 W/m2
03:34 55.8 °F 44.2 °F 29.97 in NW 8.0 mph 8.0 mph 65% 0.00 in 0.00 W/m2
03:39 55.5 °F 44.3 °F 29.97 in NNW 6.0 mph 6.0 mph 66% 0.00 in 0.00 W/m2
03:44 55.3 °F 44.1 °F 29.97 in NW 5.0 mph 7.0 mph 66% 0.00 in 0.00 W/m2
03:49 55.3 °F 44.5 °F 29.98 in NW 8.0 mph 8.0 mph 67% 0.00 in 0.00 W/m2
03:54 55.4 °F 44.6 °F 29.99 in NW 9.0 mph 9.0 mph 67% 0.00 in 0.00 W/m2
03:59 55.7 °F 45.3 °F 29.98 in NW 7.0 mph 9.0 mph 68% 0.00 in 0.00 W/m2
04:04 56.2 °F 44.6 °F 29.98 in NNW 6.0 mph 6.0 mph 65% 0.00 in 0.00 W/m2
04:09 56.7 °F 44.7 °F 29.98 in NNW 7.0 mph 8.0 mph 64% 0.00 in 0.00 W/m2
04:14 57.3 °F 44.4 °F 29.99 in NW 9.0 mph 9.0 mph 62% 0.00 in 0.00 W/m2
04:19 57.7 °F 44.8 °F 30.00 in WNW 10.0 mph 10.0 mph 62% 0.00 in 0.00 W/m2
04:24 57.8 °F 44.9 °F 30.00 in NW 8.0 mph 10.0 mph 62% 0.00 in 0.00 W/m2
04:29 57.7 °F 44.8 °F 30.00 in NW 5.0 mph 7.0 mph 62% 0.00 in 0.00 W/m2
04:34 57.6 °F 45.1 °F 30.00 in WNW 7.0 mph 8.0 mph 63% 0.00 in 0.00 W/m2
04:39 57.5 °F 45.4 °F 30.00 in NW 8.0 mph 10.0 mph 64% 0.00 in 0.00 W/m2
04:44 57.3 °F 44.8 °F 29.99 in NW 7.0 mph 8.0 mph 63% 0.00 in 0.00 W/m2
04:49 57.1 °F 45.0 °F 29.99 in NNW 4.0 mph 4.0 mph 64% 0.00 in 0.00 W/m2
04:54 56.6 °F 45.0 °F 29.99 in NNW 3.0 mph 7.0 mph 65% 0.00 in 0.00 W/m2
04:59 56.3 °F 44.7 °F 29.99 in WNW 6.0 mph 6.0 mph 65% 0.00 in 0.00 W/m2
05:04 56.1 °F 45.3 °F 29.99 in NW 6.0 mph 8.0 mph 67% 0.00 in 0.00 W/m2
05:09 55.9 °F 44.7 °F 29.99 in WNW 6.0 mph 8.0 mph 66% 0.00 in 0.00 W/m2
05:14 55.8 °F 45.0 °F 29.99 in NW 5.0 mph 8.0 mph 67% 0.00 in 0.00 W/m2
05:19 55.6 °F 45.2 °F 29.99 in NW 6.0 mph 7.0 mph 68% 0.00 in 0.00 W/m2
05:24 55.4 °F 45.0 °F 29.99 in NNW 6.0 mph 6.0 mph 68% 0.00 in 0.00 W/m2
05:29 55.3 °F 44.1 °F 30.00 in NNW 6.0 mph 7.0 mph 66% 0.00 in 0.00 W/m2
05:34 55.8 °F 43.8 °F 30.00 in NNW 5.0 mph 7.0 mph 64% 0.00 in 0.00 W/m2
05:39 56.6 °F 44.2 °F 30.00 in North 8.0 mph 9.0 mph 63% 0.00 in 0.00 W/m2
05:44 57.0 °F 43.7 °F 29.99 in NNW 6.0 mph 6.0 mph 61% 0.00 in 0.00 W/m2
05:49 57.3 °F 43.5 °F 29.99 in NW 6.0 mph 9.0 mph 60% 0.00 in 0.00 W/m2
05:54 57.3 °F 43.5 °F 29.99 in NW 7.0 mph 10.0 mph 60% 0.00 in 0.00 W/m2
05:59 57.2 °F 43.5 °F 29.99 in WNW 6.0 mph 8.0 mph 60% 0.00 in 0.00 W/m2
06:04 57.1 °F 43.4 °F 29.99 in WNW 7.0 mph 9.0 mph 60% 0.00 in 0.00 W/m2
06:09 56.9 °F 43.6 °F 30.00 in NNW 7.0 mph 8.0 mph 61% 0.00 in 0.00 W/m2
06:14 56.8 °F 43.5 °F 30.00 in NW 7.0 mph 9.0 mph 61% 0.00 in 0.00 W/m2
06:19 57.0 °F 43.3 °F 30.01 in NNW 8.0 mph 8.0 mph 60% 0.00 in 0.00 W/m2
06:24 57.2 °F 43.9 °F 29.99 in NNW 7.0 mph 7.0 mph 61% 0.00 in 0.00 W/m2
06:29 56.7 °F 44.3 °F 29.99 in North 8.0 mph 9.0 mph 63% 0.00 in 0.00 W/m2
06:34 56.2 °F 44.2 °F 30.00 in NNW 3.0 mph 5.0 mph 64% 0.00 in 0.00 W/m2
06:39 55.9 °F 44.3 °F 30.01 in WNW 7.0 mph 9.0 mph 65% 0.00 in 0.00 W/m2
06:44 55.7 °F 44.1 °F 30.01 in NW 7.0 mph 7.0 mph 65% 0.00 in 0.00 W/m2
06:49 55.7 °F 44.1 °F 30.01 in NNW 11.0 mph 11.0 mph 65% 0.00 in 0.00 W/m2
06:54 55.7 °F 44.1 °F 30.01 in NNW 7.0 mph 7.0 mph 65% 0.00 in 5.00 W/m2
06:59 56.0 °F 44.4 °F 30.02 in NNW 7.0 mph 9.0 mph 65% 0.00 in 5.00 W/m2
07:04 56.1 °F 44.1 °F 30.02 in WNW 6.0 mph 14.0 mph 64% 0.00 in 11.00 W/m2
07:09 56.2 °F 44.2 °F 30.02 in NNW 8.0 mph 8.0 mph 64% 0.00 in 18.00 W/m2
07:14 56.3 °F 44.3 °F 30.02 in NNW 9.0 mph 10.0 mph 64% 0.00 in 18.00 W/m2
07:19 56.3 °F 44.3 °F 30.03 in NW 8.0 mph 10.0 mph 64% 0.00 in 16.00 W/m2
07:24 56.4 °F 44.0 °F 30.03 in NW 6.0 mph 11.0 mph 63% 0.00 in 16.00 W/m2
07:29 56.4 °F 44.0 °F 30.03 in North 8.0 mph 8.0 mph 63% 0.00 in 23.00 W/m2
07:34 56.4 °F 44.4 °F 30.04 in NW 4.0 mph 8.0 mph 64% 0.00 in 63.00 W/m2
07:39 56.5 °F 44.5 °F 30.04 in NW 5.0 mph 8.0 mph 64% 0.00 in 60.00 W/m2
07:44 56.9 °F 44.9 °F 30.04 in NW 6.0 mph 10.0 mph 64% 0.00 in 98.00 W/m2
07:49 57.2 °F 44.7 °F 30.04 in NNW 6.0 mph 8.0 mph 63% 0.00 in 118.00 W/m2
07:54 57.5 °F 44.6 °F 30.04 in NNW 6.0 mph 7.0 mph 62% 0.00 in 134.00 W/m2
07:59 57.8 °F 44.9 °F 30.05 in NW 10.0 mph 10.0 mph 62% 0.00 in 153.00 W/m2
08:04 58.3 °F 45.4 °F 30.05 in NNW 9.0 mph 9.0 mph 62% 0.00 in 171.00 W/m2
08:09 58.7 °F 45.3 °F 30.05 in NW 9.0 mph 11.0 mph 61% 0.00 in 186.00 W/m2
08:14 59.1 °F 44.8 °F 30.05 in NW 10.0 mph 10.0 mph 59% 0.00 in 204.00 W/m2
08:19 59.4 °F 45.1 °F 30.05 in NW 8.0 mph 13.0 mph 59% 0.00 in 218.00 W/m2
08:24 59.8 °F 45.0 °F 30.05 in NW 3.0 mph 7.0 mph 58% 0.00 in 237.00 W/m2
08:29 60.2 °F 45.4 °F 30.06 in NNW 7.0 mph 9.0 mph 58% 0.00 in 255.00 W/m2
08:34 60.7 °F 45.4 °F 30.06 in NW 9.0 mph 9.0 mph 57% 0.00 in 272.00 W/m2
08:39 61.2 °F 44.0 °F 30.06 in NNW 17.0 mph 17.0 mph 53% 0.00 in 290.00 W/m2
08:44 61.3 °F 44.5 °F 30.06 in NW 10.0 mph 15.0 mph 54% 0.00 in 309.00 W/m2
08:49 61.6 °F 44.8 °F 30.06 in North 6.0 mph 12.0 mph 54% 0.00 in 327.00 W/m2
08:54 61.8 °F 45.0 °F 30.06 in NNW 9.0 mph 9.0 mph 54% 0.00 in 341.00 W/m2
08:59 62.2 °F 44.9 °F 30.06 in NW 13.0 mph 15.0 mph 53% 0.00 in 360.00 W/m2
09:04 62.3 °F 44.5 °F 30.07 in NW 13.0 mph 14.0 mph 52% 0.00 in 378.00 W/m2
09:09 62.2 °F 43.9 °F 30.07 in NW 13.0 mph 13.0 mph 51% 0.00 in 397.00 W/m2
09:14 62.3 °F 44.0 °F 30.06 in NW 6.0 mph 14.0 mph 51% 0.00 in 425.00 W/m2
09:19 62.5 °F 43.6 °F 30.07 in NNW 8.0 mph 15.0 mph 50% 0.00 in 436.00 W/m2
09:24 62.7 °F 43.8 °F 30.07 in NW 14.0 mph 14.0 mph 50% 0.00 in 454.00 W/m2
09:29 62.7 °F 42.2 °F 30.07 in North 9.0 mph 11.0 mph 47% 0.00 in 468.00 W/m2
09:34 63.0 °F 43.6 °F 30.08 in WNW 4.0 mph 8.0 mph 49% 0.00 in 483.00 W/m2
09:39 63.1 °F 42.6 °F 30.08 in NE 17.0 mph 19.0 mph 47% 0.00 in 501.00 W/m2
09:44 63.1 °F 43.6 °F 30.08 in North 9.0 mph 14.0 mph 49% 0.00 in 519.00 W/m2
09:49 63.6 °F 44.6 °F 30.08 in NNW 17.0 mph 17.0 mph 50% 0.00 in 543.00 W/m2
09:54 63.8 °F 43.8 °F 30.08 in WSW 10.0 mph 13.0 mph 48% 0.00 in 559.00 W/m2
09:59 63.8 °F 44.8 °F 30.09 in WNW 6.0 mph 10.0 mph 50% 0.00 in 570.00 W/m2
10:04 64.2 °F 45.2 °F 30.09 in NNW 8.0 mph 14.0 mph 50% 0.00 in 584.00 W/m2
10:09 64.3 °F 42.5 °F 30.09 in NW 6.0 mph 12.0 mph 45% 0.00 in 601.00 W/m2
10:14 64.5 °F 43.8 °F 30.09 in WNW 8.0 mph 9.0 mph 47% 0.00 in 626.00 W/m2
10:19 65.1 °F 42.7 °F 30.09 in NNW 8.0 mph 16.0 mph 44% 0.00 in 638.00 W/m2
10:24 65.2 °F 40.3 °F 30.10 in North 12.0 mph 14.0 mph 40% 0.00 in 649.00 W/m2
10:29 64.8 °F 41.2 °F 30.10 in NNW 14.0 mph 14.0 mph 42% 0.00 in 661.00 W/m2
10:34 65.5 °F 42.4 °F 30.10 in NW 13.0 mph 21.0 mph 43% 0.00 in 679.00 W/m2
10:39 65.4 °F 41.7 °F 30.11 in NNE 11.0 mph 11.0 mph 42% 0.00 in 693.00 W/m2
10:44 65.6 °F 42.5 °F 30.11 in NW 5.0 mph 9.0 mph 43% 0.00 in 701.00 W/m2
10:49 65.9 °F 41.6 °F 30.11 in NNW 9.0 mph 22.0 mph 41% 0.00 in 715.00 W/m2
10:54 66.1 °F 42.4 °F 30.11 in NW 11.0 mph 11.0 mph 42% 0.00 in 733.00 W/m2
10:59 66.2 °F 42.5 °F 30.11 in NNW 16.0 mph 16.0 mph 42% 0.00 in 749.00 W/m2
11:04 66.4 °F 42.0 °F 30.11 in NW 8.0 mph 12.0 mph 41% 0.00 in 759.00 W/m2
11:09 66.9 °F 42.5 °F 30.11 in NW 12.0 mph 13.0 mph 41% 0.00 in 768.00 W/m2
11:14 66.6 °F 42.8 °F 30.11 in NNW 11.0 mph 11.0 mph 42% 0.00 in 782.00 W/m2
11:19 66.9 °F 41.2 °F 30.11 in NW 9.0 mph 15.0 mph 39% 0.00 in 795.00 W/m2
11:24 66.8 °F 40.4 °F 30.11 in NNW 12.0 mph 21.0 mph 38% 0.00 in 809.00 W/m2
Zyle Road, Texas, USA
Compliments of Weather Underground - 2.25 mb